sensor_id;sensor_type;location;lat;lon;timestamp;temperature;humidity
14154;DHT22;7157;53.144;7.570;2023-11-21T00:04:56;10.23;116.73
14154;DHT22;7157;53.144;7.570;2023-11-21T00:14:59;10.21;116.65
14154;DHT22;7157;53.144;7.570;2023-11-21T00:25:03;10.25;116.73
14154;DHT22;7157;53.144;7.570;2023-11-21T00:35:06;10.23;116.67
14154;DHT22;7157;53.144;7.570;2023-11-21T00:45:11;10.21;116.63
14154;DHT22;7157;53.144;7.570;2023-11-21T00:55:14;10.20;116.67
14154;DHT22;7157;53.144;7.570;2023-11-21T01:05:18;10.22;117.11
14154;DHT22;7157;53.144;7.570;2023-11-21T01:15:22;10.33;117.07
14154;DHT22;7157;53.144;7.570;2023-11-21T01:25:28;10.38;117.08
14154;DHT22;7157;53.144;7.570;2023-11-21T01:35:31;10.37;117.13
14154;DHT22;7157;53.144;7.570;2023-11-21T01:45:37;10.39;116.97
14154;DHT22;7157;53.144;7.570;2023-11-21T01:55:41;10.42;117.22
14154;DHT22;7157;53.144;7.570;2023-11-21T02:05:46;10.43;117.15
14154;DHT22;7157;53.144;7.570;2023-11-21T02:15:49;10.43;117.33
14154;DHT22;7157;53.144;7.570;2023-11-21T02:25:55;10.45;117.23
14154;DHT22;7157;53.144;7.570;2023-11-21T02:35:57;10.44;117.29
14154;DHT22;7157;53.144;7.570;2023-11-21T02:46:02;10.48;117.37
14154;DHT22;7157;53.144;7.570;2023-11-21T02:56:05;10.50;117.18
14154;DHT22;7157;53.144;7.570;2023-11-21T03:06:10;10.44;117.22
14154;DHT22;7157;53.144;7.570;2023-11-21T03:16:12;10.48;117.14
14154;DHT22;7157;53.144;7.570;2023-11-21T03:26:17;10.42;117.14
14154;DHT22;7157;53.144;7.570;2023-11-21T03:36:19;10.41;117.06
14154;DHT22;7157;53.144;7.570;2023-11-21T03:46:24;10.42;117.12
14154;DHT22;7157;53.144;7.570;2023-11-21T03:56:27;10.45;117.12
14154;DHT22;7157;53.144;7.570;2023-11-21T04:06:31;10.42;117.04
14154;DHT22;7157;53.144;7.570;2023-11-21T04:16:34;10.43;117.12
14154;DHT22;7157;53.144;7.570;2023-11-21T04:26:38;10.38;116.92
14154;DHT22;7157;53.144;7.570;2023-11-21T04:36:41;10.31;116.95
14154;DHT22;7157;53.144;7.570;2023-11-21T04:46:45;10.34;116.86
14154;DHT22;7157;53.144;7.570;2023-11-21T04:56:48;10.35;116.91
14154;DHT22;7157;53.144;7.570;2023-11-21T05:06:52;10.27;117.03
14154;DHT22;7157;53.144;7.570;2023-11-21T05:16:55;10.30;116.83
14154;DHT22;7157;53.144;7.570;2023-11-21T05:26:59;10.25;116.81
14154;DHT22;7157;53.144;7.570;2023-11-21T05:37:02;10.01;116.57
14154;DHT22;7157;53.144;7.570;2023-11-21T05:47:07;9.90;116.72
14154;DHT22;7157;53.144;7.570;2023-11-21T05:57:11;9.84;116.38
14154;DHT22;7157;53.144;7.570;2023-11-21T06:07:15;9.81;116.46
14154;DHT22;7157;53.144;7.570;2023-11-21T06:17:18;9.86;116.18
14154;DHT22;7157;53.144;7.570;2023-11-21T06:27:22;9.65;115.86
14154;DHT22;7157;53.144;7.570;2023-11-21T06:37:26;9.53;116.09
14154;DHT22;7157;53.144;7.570;2023-11-21T06:47:31;9.64;116.11
14154;DHT22;7157;53.144;7.570;2023-11-21T06:57:34;9.59;115.77
14154;DHT22;7157;53.144;7.570;2023-11-21T07:07:38;9.56;115.86
14154;DHT22;7157;53.144;7.570;2023-11-21T07:17:41;9.47;115.74
14154;DHT22;7157;53.144;7.570;2023-11-21T07:27:46;9.48;115.88
14154;DHT22;7157;53.144;7.570;2023-11-21T07:37:49;9.47;115.83
14154;DHT22;7157;53.144;7.570;2023-11-21T07:47:53;9.25;115.36
14154;DHT22;7157;53.144;7.570;2023-11-21T07:57:56;9.44;114.97
14154;DHT22;7157;53.144;7.570;2023-11-21T08:08:00;9.89;114.04
14154;DHT22;7157;53.144;7.570;2023-11-21T08:18:03;9.90;113.38
14154;DHT22;7157;53.144;7.570;2023-11-21T08:28:10;9.78;112.77
14154;DHT22;7157;53.144;7.570;2023-11-21T08:38:12;9.80;112.07
14154;DHT22;7157;53.144;7.570;2023-11-21T08:48:17;9.69;111.41
14154;DHT22;7157;53.144;7.570;2023-11-21T08:58:19;9.78;110.57
14154;DHT22;7157;53.144;7.570;2023-11-21T09:08:24;9.79;110.03
14154;DHT22;7157;53.144;7.570;2023-11-21T09:18:27;9.77;109.57
14154;DHT22;7157;53.144;7.570;2023-11-21T09:28:31;10.03;109.80
14154;DHT22;7157;53.144;7.570;2023-11-21T09:38:34;9.97;108.39
14154;DHT22;7157;53.144;7.570;2023-11-21T09:48:39;9.71;107.20
14154;DHT22;7157;53.144;7.570;2023-11-21T09:58:42;9.70;108.97
14154;DHT22;7157;53.144;7.570;2023-11-21T10:08:48;9.57;107.82
14154;DHT22;7157;53.144;7.570;2023-11-21T10:18:58;9.71;109.05
14154;DHT22;7157;53.144;7.570;2023-11-21T10:29:14;9.85;106.97
14154;DHT22;7157;53.144;7.570;2023-11-21T10:39:18;10.19;107.12
14154;DHT22;7157;53.144;7.570;2023-11-21T10:49:24;10.34;107.11
14154;DHT22;7157;53.144;7.570;2023-11-21T10:59:29;10.48;105.15
14154;DHT22;7157;53.144;7.570;2023-11-21T11:09:34;11.05;103.87
14154;DHT22;7157;53.144;7.570;2023-11-21T11:19:37;11.72;101.89
14154;DHT22;7157;53.144;7.570;2023-11-21T11:29:50;11.37;101.31
14154;DHT22;7157;53.144;7.570;2023-11-21T11:39:56;10.98;101.55
14154;DHT22;7157;53.144;7.570;2023-11-21T11:50:05;11.08;102.54
14154;DHT22;7157;53.144;7.570;2023-11-21T12:00:15;10.46;101.14
14154;DHT22;7157;53.144;7.570;2023-11-21T12:10:22;10.27;102.68
14154;DHT22;7157;53.144;7.570;2023-11-21T12:20:27;10.70;103.05
14154;DHT22;7157;53.144;7.570;2023-11-21T12:30:33;12.36;95.45
14154;DHT22;7157;53.144;7.570;2023-11-21T12:40:37;11.04;101.89
14154;DHT22;7157;53.144;7.570;2023-11-21T12:50:42;10.33;103.02
14154;DHT22;7157;53.144;7.570;2023-11-21T13:00:49;9.99;104.82
14154;DHT22;7157;53.144;7.570;2023-11-21T13:10:56;9.93;105.89
14154;DHT22;7157;53.144;7.570;2023-11-21T13:21:01;9.76;104.99
14154;DHT22;7157;53.144;7.570;2023-11-21T13:31:06;10.07;106.49
14154;DHT22;7157;53.144;7.570;2023-11-21T13:41:23;10.25;106.35
14154;DHT22;7157;53.144;7.570;2023-11-21T13:51:33;10.28;106.36
14154;DHT22;7157;53.144;7.570;2023-11-21T14:01:42;10.22;106.45
14154;DHT22;7157;53.144;7.570;2023-11-21T14:11:57;10.56;105.34
14154;DHT22;7157;53.144;7.570;2023-11-21T14:22:01;10.14;106.22
14154;DHT22;7157;53.144;7.570;2023-11-21T14:32:06;9.76;105.97
14154;DHT22;7157;53.144;7.570;2023-11-21T14:42:10;9.53;105.21
14154;DHT22;7157;53.144;7.570;2023-11-21T14:52:14;9.33;102.12
14154;DHT22;7157;53.144;7.570;2023-11-21T15:02:33;9.09;103.78
14154;DHT22;7157;53.144;7.570;2023-11-21T15:13:01;8.85;105.14
14154;DHT22;7157;53.144;7.570;2023-11-21T15:23:04;8.67;106.75
14154;DHT22;7157;53.144;7.570;2023-11-21T15:33:09;8.47;106.63
14154;DHT22;7157;53.144;7.570;2023-11-21T15:43:12;8.31;107.54
14154;DHT22;7157;53.144;7.570;2023-11-21T15:53:16;8.23;108.40
14154;DHT22;7157;53.144;7.570;2023-11-21T16:03:19;8.01;107.84
14154;DHT22;7157;53.144;7.570;2023-11-21T16:13:25;8.01;108.46
14154;DHT22;7157;53.144;7.570;2023-11-21T16:23:27;8.03;108.47
14154;DHT22;7157;53.144;7.570;2023-11-21T16:33:31;8.00;107.68
14154;DHT22;7157;53.144;7.570;2023-11-21T16:43:34;8.02;107.09
14154;DHT22;7157;53.144;7.570;2023-11-21T16:53:38;8.00;106.69
14154;DHT22;7157;53.144;7.570;2023-11-21T17:03:44;8.11;108.45
14154;DHT22;7157;53.144;7.570;2023-11-21T17:13:48;8.05;108.94
14154;DHT22;7157;53.144;7.570;2023-11-21T17:23:51;8.15;109.51
14154;DHT22;7157;53.144;7.570;2023-11-21T17:33:56;8.15;109.84
14154;DHT22;7157;53.144;7.570;2023-11-21T17:43:59;8.06;109.85
14154;DHT22;7157;53.144;7.570;2023-11-21T17:54:06;8.11;110.24
14154;DHT22;7157;53.144;7.570;2023-11-21T18:04:10;8.08;110.20
14154;DHT22;7157;53.144;7.570;2023-11-21T18:14:14;8.05;109.60
14154;DHT22;7157;53.144;7.570;2023-11-21T18:24:17;8.01;109.66
14154;DHT22;7157;53.144;7.570;2023-11-21T18:34:21;7.87;109.05
14154;DHT22;7157;53.144;7.570;2023-11-21T18:44:25;7.72;108.20
14154;DHT22;7157;53.144;7.570;2023-11-21T18:54:30;7.65;108.75
14154;DHT22;7157;53.144;7.570;2023-11-21T19:04:32;7.57;109.06
14154;DHT22;7157;53.144;7.570;2023-11-21T19:14:36;7.43;108.84
14154;DHT22;7157;53.144;7.570;2023-11-21T19:24:39;7.23;109.46
14154;DHT22;7157;53.144;7.570;2023-11-21T19:34:45;7.01;110.26
14154;DHT22;7157;53.144;7.570;2023-11-21T19:44:47;6.73;110.89
14154;DHT22;7157;53.144;7.570;2023-11-21T19:54:51;6.50;111.23
14154;DHT22;7157;53.144;7.570;2023-11-21T20:04:55;6.22;111.46
14154;DHT22;7157;53.144;7.570;2023-11-21T20:14:59;5.94;111.96
14154;DHT22;7157;53.144;7.570;2023-11-21T20:25:02;5.78;112.12
14154;DHT22;7157;53.144;7.570;2023-11-21T20:35:07;5.59;112.35
14154;DHT22;7157;53.144;7.570;2023-11-21T20:45:12;5.41;112.40
14154;DHT22;7157;53.144;7.570;2023-11-21T20:55:18;5.40;112.61
14154;DHT22;7157;53.144;7.570;2023-11-21T21:05:21;5.19;112.64
14154;DHT22;7157;53.144;7.570;2023-11-21T21:15:27;5.03;112.61
14154;DHT22;7157;53.144;7.570;2023-11-21T21:25:30;4.91;112.63
14154;DHT22;7157;53.144;7.570;2023-11-21T21:35:35;4.73;112.98
14154;DHT22;7157;53.144;7.570;2023-11-21T21:45:38;4.52;113.12
14154;DHT22;7157;53.144;7.570;2023-11-21T21:55:42;4.47;113.35
14154;DHT22;7157;53.144;7.570;2023-11-21T22:05:45;4.29;113.27
14154;DHT22;7157;53.144;7.570;2023-11-21T22:15:49;4.33;113.38
14154;DHT22;7157;53.144;7.570;2023-11-21T22:25:52;4.05;113.27
14154;DHT22;7157;53.144;7.570;2023-11-21T22:35:56;3.89;113.26
14154;DHT22;7157;53.144;7.570;2023-11-21T22:46:02;3.80;113.58
14154;DHT22;7157;53.144;7.570;2023-11-21T22:56:08;3.84;113.67
14154;DHT22;7157;53.144;7.570;2023-11-21T23:06:10;3.76;113.71
14154;DHT22;7157;53.144;7.570;2023-11-21T23:16:15;3.75;113.72
14154;DHT22;7157;53.144;7.570;2023-11-21T23:26:18;3.74;113.42
14154;DHT22;7157;53.144;7.570;2023-11-21T23:36:22;3.57;113.61
14154;DHT22;7157;53.144;7.570;2023-11-21T23:46:27;3.41;113.62
14154;DHT22;7157;53.144;7.570;2023-11-21T23:56:31;3.30;113.32
